createdAt,value
2018-09-17T05:08:28.811Z,7.90
2018-09-17T05:26:14.897Z,7.88
2018-09-17T05:27:17.739Z,7.91
2018-09-17T05:28:11.911Z,7.93
2018-09-17T05:30:13.125Z,7.93
2018-09-17T05:31:12.441Z,7.98
2018-09-17T05:32:12.017Z,7.95
2018-09-17T05:33:17.114Z,8.03
2018-09-17T05:37:09.675Z,8.16
2018-09-17T05:40:18.054Z,7.98
2018-09-17T05:42:07.408Z,8.00
2018-09-17T05:43:06.969Z,8.03
2018-09-17T05:44:06.751Z,8.03
2018-09-17T05:47:23.416Z,7.98
2018-09-17T05:48:24.844Z,7.94
2018-09-17T05:49:49.168Z,7.95
2018-09-17T05:50:40.898Z,7.97
2018-09-17T05:51:24.331Z,7.98
2018-09-17T05:52:22.983Z,8.05
2018-09-17T05:53:24.139Z,7.98
2018-09-17T05:54:26.315Z,7.94
2018-09-17T05:55:24.238Z,8.05
2018-09-17T05:56:24.190Z,8.01
2018-09-17T05:57:24.402Z,8.06
2018-09-17T05:58:21.926Z,8.13
2018-09-17T05:59:21.988Z,8.10
2018-09-17T06:00:22.189Z,8.16
2018-09-17T06:01:22.168Z,8.18
2018-09-17T06:02:22.401Z,8.23
2018-09-17T06:03:22.627Z,8.27
2018-09-17T06:04:22.766Z,8.24
2018-09-17T06:05:22.925Z,8.28
2018-09-17T06:06:23.195Z,8.31
2018-09-17T06:07:23.291Z,8.42
2018-09-17T06:08:23.436Z,8.41
2018-09-17T06:09:23.594Z,8.37
2018-09-17T06:10:23.729Z,8.52
2018-09-17T06:11:24.098Z,8.60
2018-09-17T06:12:24.162Z,8.63
2018-09-17T06:13:24.236Z,8.79
2018-09-17T06:14:24.490Z,8.88
2018-09-17T06:15:24.753Z,8.82
2018-09-17T06:16:24.853Z,8.99
2018-09-17T06:17:25.072Z,8.99
2018-09-17T06:18:25.216Z,8.95
2018-09-17T06:19:25.428Z,9.10
2018-09-17T06:20:25.674Z,9.19
2018-09-17T06:21:25.867Z,9.23
2018-09-17T06:22:26.083Z,9.26
2018-09-17T06:23:26.321Z,9.44
2018-09-17T06:24:26.384Z,9.48
2018-09-17T06:25:28.633Z,9.58
2018-09-17T06:26:27.278Z,9.62
2018-09-17T06:27:44.454Z,9.56
2018-09-17T06:28:32.811Z,9.68
2018-09-17T06:29:32.594Z,9.80
2018-09-17T06:30:30.213Z,9.80
2018-09-17T06:31:30.777Z,9.83
2018-09-17T06:32:30.430Z,10.02
2018-09-17T06:33:30.853Z,9.99
2018-09-17T06:34:28.136Z,10.15
2018-09-17T06:35:28.131Z,10.19
2018-09-17T06:36:28.235Z,10.19
2018-09-17T06:37:28.360Z,10.38
2018-09-17T06:38:28.542Z,10.40
2018-09-17T06:39:28.731Z,10.49
2018-09-17T06:40:28.947Z,10.67
2018-09-17T06:41:29.279Z,10.74
2018-09-17T06:42:29.342Z,10.71
2018-09-17T06:43:29.577Z,10.90
2018-09-17T06:44:29.739Z,10.93
2018-09-17T06:45:29.865Z,11.05
2018-09-17T06:48:14.262Z,11.33
2018-09-17T06:49:24.470Z,11.37
2018-09-17T06:50:15.571Z,11.48
2018-09-17T06:51:15.712Z,11.52
2018-09-17T06:52:16.451Z,11.51
2018-09-17T06:53:16.621Z,11.68
2018-09-17T06:56:32.275Z,11.94
2018-09-17T06:57:33.364Z,12.06
2018-09-17T06:58:31.882Z,12.07
2018-09-17T06:59:31.688Z,12.22
2018-09-17T07:00:31.634Z,12.25
2018-09-17T07:01:31.777Z,12.39
2018-09-17T07:02:32.062Z,12.58
2018-09-17T07:03:32.179Z,12.67
2018-09-17T07:04:33.387Z,12.83
2018-09-17T07:05:32.558Z,13.03
2018-09-17T07:06:32.781Z,13.19
2018-09-17T07:07:32.893Z,13.38
2018-09-17T07:08:33.007Z,13.49
2018-09-17T07:09:33.479Z,13.59
2018-09-17T07:10:33.626Z,13.67
2018-09-17T07:11:33.871Z,13.68
2018-09-17T07:12:34.060Z,13.75
2018-09-17T07:13:34.365Z,13.74
2018-09-17T07:14:34.377Z,13.87
2018-09-17T07:15:34.544Z,13.87
2018-09-17T07:16:34.729Z,13.77
2018-09-17T07:17:34.792Z,13.68
2018-09-17T07:18:35.208Z,13.74
2018-09-17T07:19:35.310Z,13.83
2018-09-17T07:20:35.456Z,13.89
2018-09-17T07:22:48.689Z,14.07
2018-09-17T07:23:40.677Z,14.05
2018-09-17T07:24:38.220Z,14.12
2018-09-17T07:25:53.894Z,14.15
2018-09-17T07:26:39.055Z,14.28
2018-09-17T07:27:40.282Z,14.37
2018-09-17T07:28:43.322Z,14.47
2018-09-17T07:29:41.957Z,14.40
2018-09-17T07:30:39.900Z,14.54
2018-09-17T07:31:39.334Z,14.77
2018-09-17T07:32:37.995Z,14.81
2018-09-17T07:33:38.294Z,14.88
2018-09-17T07:35:39.223Z,14.84
2018-09-17T07:36:38.815Z,15.03
2018-09-17T07:37:38.800Z,15.10
2018-09-17T07:38:39.075Z,15.21
2018-09-17T07:39:40.084Z,15.24
2018-09-17T07:40:39.770Z,15.33
2018-09-17T07:41:39.594Z,15.54
2018-09-17T07:42:39.575Z,15.43
2018-09-17T07:43:39.945Z,15.52
2018-09-17T07:44:40.141Z,15.61
2018-09-17T07:45:40.719Z,15.75
2018-09-17T07:46:40.761Z,15.70
2018-09-17T07:48:41.346Z,16.05
2018-09-17T07:49:41.175Z,16.05
2018-09-17T07:50:40.819Z,16.21
2018-09-17T07:51:41.136Z,16.15
2018-09-17T07:52:41.268Z,16.28
2018-09-17T07:53:43.371Z,16.32
2018-09-17T07:54:43.256Z,16.43
2018-09-17T07:55:41.587Z,16.54
2018-09-17T07:56:41.835Z,16.57
2018-09-17T07:57:42.848Z,16.66
2018-09-17T07:58:42.551Z,16.83
2018-09-17T07:59:42.514Z,16.97
2018-09-17T08:00:42.888Z,16.99
2018-09-17T08:01:43.432Z,17.06
2018-09-17T08:02:43.149Z,17.23
2018-09-17T08:03:43.278Z,17.24
2018-09-17T08:04:43.398Z,17.30
2018-09-17T08:05:46.426Z,17.41
2018-09-17T08:06:44.159Z,17.56
2018-09-17T08:07:43.923Z,17.64
2018-09-17T08:08:44.079Z,17.82
2018-09-17T08:09:44.262Z,17.92
2018-09-17T08:10:46.312Z,17.98
2018-09-17T08:11:44.563Z,18.05
2018-09-17T08:12:44.650Z,17.97
2018-09-17T08:13:45.059Z,17.90
2018-09-17T08:14:45.501Z,17.95
2018-09-17T08:15:45.188Z,18.13
2018-09-17T08:16:45.685Z,18.08
2018-09-17T08:17:45.653Z,18.19
2018-09-17T08:18:45.973Z,18.25
2018-09-17T08:19:46.697Z,18.19
2018-09-17T08:20:47.160Z,18.38
2018-09-17T08:21:46.707Z,18.45
2018-09-17T08:22:47.198Z,18.59
2018-09-17T08:23:48.341Z,18.59
2018-09-17T08:25:00.430Z,18.71
2018-09-17T08:25:58.414Z,18.93
2018-09-17T08:26:47.200Z,18.99
2018-09-17T08:27:47.665Z,19.16
2018-09-17T08:28:48.036Z,19.11
2018-09-17T08:29:48.173Z,19.26
2018-09-17T08:30:48.333Z,19.44
2018-09-17T08:31:49.031Z,19.47
2018-09-17T08:32:49.102Z,19.54
2018-09-17T08:33:49.178Z,19.56
2018-09-17T08:34:50.043Z,19.82
2018-09-17T08:35:49.939Z,19.81
2018-09-17T08:36:49.576Z,20.03
2018-09-17T08:37:50.236Z,20.14
2018-09-17T08:38:50.240Z,20.24
2018-09-17T08:39:50.041Z,20.43
2018-09-17T08:40:49.630Z,20.48
2018-09-17T08:41:49.889Z,20.52
2018-09-17T08:42:50.035Z,20.52
2018-09-17T08:43:50.255Z,20.66
2018-09-17T08:44:50.447Z,20.66
2018-09-17T08:47:54.869Z,20.78
2018-09-17T08:48:55.226Z,21.05
2018-09-17T08:49:55.573Z,21.15
2018-09-17T08:50:55.602Z,21.27
2018-09-17T08:51:55.633Z,21.33
2018-09-17T08:52:55.839Z,21.40
2018-09-17T08:53:56.594Z,21.39
2018-09-17T08:55:03.562Z,21.43
2018-09-17T08:55:56.284Z,21.40
2018-09-17T08:56:56.905Z,21.37
2018-09-17T08:57:59.186Z,21.48
2018-09-17T08:58:57.087Z,21.52
2018-09-17T08:59:58.187Z,21.66
2018-09-17T09:01:01.833Z,21.66
2018-09-17T09:01:59.958Z,21.80
2018-09-17T09:02:55.280Z,22.00
2018-09-17T09:03:55.554Z,22.08
2018-09-17T09:04:55.933Z,22.29
2018-09-17T09:11:14.728Z,23.08
2018-09-17T09:12:14.054Z,23.21
2018-09-17T09:13:14.068Z,23.36
2018-09-17T09:14:14.191Z,23.51
2018-09-17T09:15:15.716Z,23.71
2018-09-17T09:16:14.852Z,23.92
2018-09-17T09:17:15.076Z,24.18
2018-09-17T09:18:12.685Z,24.54
2018-09-17T09:19:12.715Z,24.53
2018-09-17T09:20:17.534Z,24.77
2018-09-17T09:21:12.985Z,25.17
2018-09-17T09:22:18.650Z,25.59
2018-09-17T09:23:14.997Z,25.85
2018-09-17T09:24:13.728Z,26.16
2018-09-17T09:25:14.273Z,26.71
2018-09-17T09:26:13.951Z,27.37
2018-09-17T09:27:14.971Z,27.68
2018-09-17T09:28:14.486Z,27.90
2018-09-17T09:29:14.388Z,27.70
2018-09-17T09:30:16.295Z,27.93
2018-09-17T09:31:15.068Z,28.49
2018-09-17T09:40:08.766Z,30.30
2018-09-17T10:18:02.309Z,34.80
2018-09-17T10:25:41.541Z,35.42
2018-09-17T10:30:49.031Z,34.88
2018-09-17T10:33:35.695Z,35.05
2018-09-17T10:34:29.831Z,34.90
2018-09-17T13:09:34.547Z,36.73
2018-09-17T13:10:34.849Z,36.55
2018-09-17T13:11:39.165Z,36.49
2018-09-17T13:12:35.720Z,36.17
2018-09-17T13:42:38.271Z,35.29
2018-09-17T13:43:38.487Z,35.52
2018-09-17T13:44:37.275Z,35.61
2018-09-17T13:45:37.363Z,35.79
2018-09-17T13:46:37.577Z,35.95
2018-09-17T13:47:37.721Z,35.45
2018-09-17T13:48:37.969Z,35.63
2018-09-17T13:49:38.137Z,35.68
2018-09-17T13:50:38.306Z,35.88
2018-09-17T13:51:38.450Z,36.16
2018-09-17T13:52:38.577Z,36.12
2018-09-17T13:53:38.851Z,35.97
2018-09-17T13:54:38.897Z,35.92
2018-09-17T13:55:39.137Z,36.07
2018-09-17T13:56:39.338Z,36.46
2018-09-17T13:57:39.535Z,36.31
2018-09-17T13:58:39.690Z,36.07
2018-09-17T13:59:41.325Z,36.04
2018-09-17T14:00:40.423Z,35.73
2018-09-17T14:01:41.027Z,35.41
2018-09-17T14:02:41.181Z,35.27
2018-09-17T14:03:40.918Z,35.27
2018-09-17T14:04:41.276Z,35.19
2018-09-17T14:05:42.949Z,35.05
2018-09-17T14:06:41.612Z,34.86
2018-09-17T14:07:41.647Z,34.81
2018-09-17T14:08:41.582Z,34.64
2018-09-17T14:09:41.839Z,34.47
2018-09-17T14:10:41.951Z,34.23
2018-09-17T14:11:42.164Z,34.33
2018-09-17T14:12:42.313Z,34.35
2018-09-17T14:13:42.501Z,34.36
2018-09-17T14:14:42.634Z,34.61
2018-09-17T14:15:42.920Z,34.92
2018-09-17T14:16:43.036Z,34.86
2018-09-17T14:17:43.303Z,34.80
2018-09-17T14:18:43.455Z,34.40
2018-09-17T14:19:43.936Z,34.54
2018-09-17T14:20:44.950Z,34.54
2018-09-17T14:21:44.026Z,34.42
2018-09-17T14:22:44.551Z,34.42
2018-09-17T14:23:44.356Z,34.45
2018-09-17T14:24:44.721Z,34.32
2018-09-17T14:25:44.885Z,34.39
2018-09-17T14:26:44.999Z,34.20
2018-09-17T14:27:45.413Z,34.25
2018-09-17T14:28:45.576Z,34.24
2018-09-17T14:29:46.154Z,34.16
2018-09-17T14:30:47.322Z,34.16
2018-09-17T14:31:45.983Z,34.10
2018-09-17T14:32:47.317Z,34.05
2018-09-17T14:33:46.666Z,33.99
2018-09-17T14:34:46.955Z,34.05
2018-09-17T14:35:46.989Z,34.10
2018-09-17T14:36:47.787Z,34.01
2018-09-17T14:37:47.041Z,33.86
2018-09-17T14:38:47.597Z,33.69
2018-09-17T14:39:48.270Z,33.77
2018-09-17T14:40:48.446Z,33.81
2018-09-17T14:41:48.701Z,33.99
2018-09-17T14:42:47.886Z,34.16
2018-09-17T14:43:48.276Z,34.02
2018-09-17T14:44:48.373Z,33.95
2018-09-17T14:45:48.606Z,33.58
2018-09-17T14:46:49.049Z,33.37
2018-09-17T14:47:49.119Z,33.17
2018-09-17T14:48:49.121Z,33.01
2018-09-17T14:49:52.960Z,32.75
2018-09-17T14:50:50.412Z,32.56
2018-09-17T14:51:49.919Z,32.41
2018-09-17T14:52:50.275Z,32.22
2018-09-17T14:53:50.500Z,32.03
2018-09-17T14:54:50.461Z,31.89
2018-09-17T14:55:50.472Z,31.73
2018-09-17T14:56:50.851Z,31.70
2018-09-17T14:57:51.152Z,31.62
2018-09-17T14:58:51.689Z,31.64
2018-09-17T14:59:52.013Z,31.61
2018-09-17T15:00:51.329Z,31.56
2018-09-17T15:01:51.810Z,31.52
2018-09-17T15:02:51.645Z,31.42
2018-09-17T15:03:51.938Z,31.37
2018-09-17T15:04:52.227Z,31.14
2018-09-17T15:05:52.450Z,31.17
2018-09-17T15:06:52.401Z,31.05
2018-09-17T15:07:52.583Z,30.91
2018-09-17T15:08:52.746Z,30.83
2018-09-17T15:09:52.843Z,30.78
2018-09-17T15:10:53.000Z,30.70
2018-09-17T15:11:53.221Z,30.72
2018-09-17T15:12:53.501Z,30.69
2018-09-17T15:13:53.547Z,30.77
2018-09-17T15:14:53.853Z,30.75
2018-09-17T15:15:54.351Z,30.61
2018-09-17T15:16:54.584Z,30.55
2018-09-17T15:17:54.341Z,30.61
2018-09-17T15:18:54.553Z,30.57
2018-09-17T15:19:54.676Z,30.55
2018-09-17T15:20:54.725Z,30.48
2018-09-17T15:21:55.013Z,30.47
2018-09-17T15:22:55.114Z,30.37
2018-09-17T15:23:55.414Z,30.27
2018-09-17T15:24:55.546Z,30.37
2018-09-17T15:25:55.773Z,30.32
2018-09-17T15:26:55.861Z,30.34
2018-09-17T15:27:56.039Z,30.18
2018-09-17T15:28:56.242Z,30.13
2018-09-17T15:29:56.338Z,30.21
2018-09-17T15:30:56.563Z,30.12
2018-09-17T15:31:56.717Z,30.09
2018-09-17T15:32:56.869Z,30.12
2018-09-17T15:33:57.136Z,30.08
2018-09-17T15:34:57.291Z,29.90
2018-09-17T15:35:57.383Z,29.95
2018-09-17T15:36:57.653Z,30.00
2018-09-17T15:37:57.851Z,29.90
2018-09-17T15:39:07.586Z,29.94
2018-09-17T15:40:58.463Z,29.73
2018-09-17T15:41:58.599Z,29.66
2018-09-17T15:42:58.710Z,29.60
2018-09-17T15:43:58.922Z,29.57
2018-09-17T15:44:59.158Z,29.47
2018-09-17T15:45:59.303Z,29.34
2018-09-17T15:46:59.557Z,29.38
2018-09-17T15:47:59.629Z,29.35
2018-09-17T15:48:59.850Z,29.29
2018-09-17T15:49:59.965Z,29.16
2018-09-17T15:51:00.172Z,29.20
2018-09-17T15:52:00.243Z,29.19
2018-09-17T15:53:00.464Z,29.23
2018-09-17T15:54:00.583Z,29.12
2018-09-17T15:55:00.783Z,29.14
2018-09-17T15:56:01.258Z,29.05
2018-09-17T15:57:01.254Z,29.05
2018-09-17T15:58:01.277Z,28.98
2018-09-17T15:59:01.529Z,28.91
2018-09-17T16:00:01.656Z,28.97
2018-09-17T16:01:01.838Z,28.91
2018-09-17T16:02:01.990Z,28.93
2018-09-17T16:03:02.328Z,28.81
2018-09-17T16:04:02.423Z,28.76
2018-09-17T16:05:02.557Z,28.72
2018-09-17T16:06:02.750Z,28.70
2018-09-17T16:07:04.145Z,28.75
2018-09-17T16:08:05.924Z,28.49
2018-09-17T16:09:04.215Z,28.56
2018-09-17T16:10:07.053Z,28.48
2018-09-17T16:11:03.857Z,28.39
2018-09-17T16:13:08.278Z,28.37
2018-09-17T16:15:04.135Z,28.30
2018-09-17T16:16:04.375Z,28.35
2018-09-17T16:17:04.639Z,28.27
2018-09-17T16:18:04.688Z,28.29
2018-09-17T16:19:04.973Z,28.20
2018-09-17T16:20:05.154Z,28.07
2018-09-17T16:21:05.271Z,28.04
2018-09-17T16:22:05.453Z,27.86
2018-09-17T16:23:05.677Z,27.75
2018-09-17T16:24:05.713Z,27.67
2018-09-17T16:25:05.927Z,27.52
2018-09-17T16:26:06.143Z,27.51
2018-09-17T16:27:06.490Z,27.60
2018-09-17T16:28:06.581Z,27.32
2018-09-17T16:29:06.820Z,27.27
2018-09-17T16:30:06.891Z,27.17
2018-09-17T16:33:13.745Z,27.11
2018-09-17T16:34:13.593Z,27.08
2018-09-17T16:35:11.006Z,27.02
2018-09-17T16:36:11.451Z,26.90
2018-09-17T16:37:11.441Z,26.93
2018-09-17T16:38:11.647Z,26.84
2018-09-17T16:39:11.744Z,26.83
2018-09-17T16:40:11.983Z,26.81
2018-09-17T16:41:12.043Z,26.62
2018-09-17T16:42:12.214Z,26.63
2018-09-17T16:43:12.476Z,26.52
2018-09-17T16:44:12.799Z,26.43
2018-09-17T16:45:13.397Z,26.43
2018-09-17T16:47:13.275Z,26.28
2018-09-17T16:48:13.357Z,26.22
2018-09-17T16:49:13.649Z,26.13
2018-09-17T16:50:13.696Z,26.05
2018-09-17T16:51:13.913Z,25.95
2018-09-17T16:52:14.120Z,25.95
2018-09-17T16:56:21.051Z,25.69
2018-09-17T17:17:36.162Z,24.40
2018-09-17T17:22:01.411Z,23.98
2018-09-17T17:24:48.404Z,23.73
2018-09-17T17:25:46.323Z,23.76
2018-09-17T17:26:44.399Z,23.69
2018-09-17T17:27:43.952Z,23.54
2018-09-17T17:31:52.691Z,23.13
2018-09-17T17:32:52.035Z,22.99
2018-09-17T17:33:52.676Z,22.99
2018-09-17T17:34:52.686Z,22.91
2018-09-17T17:35:53.507Z,22.76
2018-09-17T17:36:55.019Z,22.80
2018-09-17T17:38:44.532Z,22.72
2018-09-17T17:40:33.080Z,22.50
2018-09-17T17:41:27.125Z,22.51
2018-09-17T17:42:26.338Z,22.45
2018-09-17T17:44:28.145Z,22.33
2018-09-17T17:45:27.862Z,22.29
2018-09-17T17:46:27.223Z,22.29
2018-09-17T17:47:28.268Z,22.23
2018-09-17T17:49:27.684Z,22.13
2018-09-17T17:50:28.941Z,22.13
2018-09-17T17:51:30.875Z,22.11
2018-09-17T17:52:33.307Z,22.08
2018-09-17T17:53:31.838Z,21.99
2018-09-17T17:56:28.645Z,21.85
2018-09-17T17:57:28.777Z,21.80
2018-09-17T17:58:28.922Z,21.66
2018-09-17T17:59:31.171Z,21.61
2018-09-17T18:00:31.262Z,21.52
2018-09-17T18:02:56.014Z,21.52
2018-09-17T18:03:58.942Z,21.50
2018-09-17T18:04:56.842Z,21.40
2018-09-17T18:05:57.468Z,21.29
2018-09-17T18:06:57.817Z,21.35
2018-09-17T18:07:57.216Z,21.35
2018-09-17T18:08:57.574Z,21.27
2018-09-17T18:09:58.231Z,21.25
2018-09-17T18:10:59.871Z,21.21
2018-09-17T18:12:00.262Z,21.27
2018-09-17T18:13:23.836Z,21.18
2018-09-17T18:15:11.931Z,21.03
2018-09-17T18:16:02.318Z,21.06
2018-09-17T18:19:08.708Z,20.93
2018-09-17T18:27:54.628Z,20.50
2018-09-17T18:28:47.283Z,20.44
2018-09-17T18:32:17.744Z,20.34
2018-09-17T19:23:13.060Z,18.11
2018-09-17T19:24:14.936Z,18.10
2018-09-17T19:25:18.285Z,18.04
2018-09-17T19:27:15.424Z,17.87
2018-09-17T19:28:20.405Z,17.86
2018-09-17T19:29:15.739Z,17.82
2018-09-17T19:31:13.323Z,17.79
2018-09-17T19:35:47.343Z,17.65
2018-09-17T19:44:11.851Z,17.46
2018-09-17T19:45:13.339Z,17.38
2018-09-17T21:04:10.518Z,15.31
2018-09-17T21:23:28.412Z,14.96
2018-09-17T21:27:34.445Z,14.96
2018-09-17T21:41:59.399Z,14.72
2018-09-17T21:42:47.186Z,14.70
2018-09-17T21:49:21.317Z,14.54
